Time;durP1;ratioP1;P1;durP2;ratioP2;P2;SDS_P1;SDS_P2;PMS_P1;PMS_P2;Temp;Humidity;BMP_temperature;BMP_pressure;BME280_temperature;BME280_humidity;BME280_pressure;Samples;Min_cycle;Max_cycle;Signal;HPM_P1;HPM_P2
2024/01/01 00:01:08;;;;;;;73.38;43.85;;;;;;;;;;5027435;28;20055;-88
2024/01/01 00:03:53;;;;;;;76.07;44.35;;;;;;;;;;5042131;28;20051;-89
2024/01/01 00:06:37;;;;;;;84.70;46.58;;;;;;;;;;5044313;28;20040;-89
2024/01/01 00:09:24;;;;;;;85.68;48.60;;;;;;;;;;5061938;28;20082;-89
2024/01/01 00:12:09;;;;;;;70.50;39.67;;;;;;;;;;5054239;28;20051;-88
2024/01/01 00:14:54;;;;;;;76.80;47.75;;;;;;;;;;5054710;28;20657;-89
2024/01/01 00:17:39;;;;;;;78.20;45.67;;;;;;;;;;5039837;28;20046;-90
2024/01/01 00:20:24;;;;;;;73.18;44.55;;;;;;;;;;5066589;28;20107;-90
2024/01/01 00:23:09;;;;;;;75.68;43.92;;;;;;;;;;5055149;28;20040;-91
2024/01/01 00:25:54;;;;;;;75.38;45.47;;;;;;;;;;5023124;28;20550;-91
2024/01/01 00:28:38;;;;;;;68.40;39.88;;;;;;;;;;5024380;28;20078;-90
2024/01/01 00:31:23;;;;;;;62.63;36.28;;;;;;;;;;5067924;28;20086;-90
2024/01/01 00:34:08;;;;;;;62.50;32.63;;;;;;;;;;5055075;28;20034;-89
2024/01/01 00:36:52;;;;;;;55.80;30.70;;;;;;;;;;5052380;28;20070;-90
2024/01/01 00:39:38;;;;;;;51.25;30.67;;;;;;;;;;5053140;28;20052;-92
2024/01/01 00:42:22;;;;;;;47.03;28.25;;;;;;;;;;5059949;28;20452;-91
2024/01/01 00:45:07;;;;;;;47.53;25.75;;;;;;;;;;5068199;28;20052;-89
2024/01/01 00:47:51;;;;;;;38.75;22.67;;;;;;;;;;5066791;28;20091;-87
2024/01/01 00:50:37;;;;;;;42.72;23.13;;;;;;;;;;5068481;28;20550;-89
2024/01/01 00:53:24;;;;;;;38.35;20.00;;;;;;;;;;5042114;28;20078;-88
2024/01/01 00:56:09;;;;;;;30.63;17.63;;;;;;;;;;5053463;28;20766;-87
2024/01/01 00:58:53;;;;;;;34.33;17.58;;;;;;;;;;5054006;28;20075;-88
2024/01/01 01:01:38;;;;;;;31.98;16.70;;;;;;;;;;5044409;28;20512;-90
2024/01/01 01:04:25;;;;;;;35.03;17.17;;;;;;;;;;5055661;28;20031;-88
2024/01/01 01:07:10;;;;;;;39.65;18.63;;;;;;;;;;5056779;28;20090;-88
2024/01/01 01:09:54;;;;;;;33.47;16.48;;;;;;;;;;5072236;28;20042;-87
2024/01/01 01:12:39;;;;;;;40.30;20.48;;;;;;;;;;5045029;28;20055;-88
2024/01/01 01:15:25;;;;;;;36.40;20.95;;;;;;;;;;5067713;28;20067;-88
2024/01/01 01:18:10;;;;;;;37.58;18.75;;;;;;;;;;5055497;28;20085;-89
2024/01/01 01:20:54;;;;;;;37.72;19.02;;;;;;;;;;5047177;28;20043;-88
2024/01/01 01:23:39;;;;;;;32.22;17.60;;;;;;;;;;5042938;28;20086;-89
2024/01/01 01:26:24;;;;;;;38.35;20.42;;;;;;;;;;5056506;28;20070;-89
2024/01/01 01:29:09;;;;;;;38.63;20.50;;;;;;;;;;5056162;28;20039;-88
2024/01/01 01:31:54;;;;;;;37.97;20.75;;;;;;;;;;5055531;28;20122;-89
2024/01/01 01:34:39;;;;;;;40.45;20.27;;;;;;;;;;5053710;28;20048;-89
2024/01/01 01:37:24;;;;;;;36.75;20.83;;;;;;;;;;5039691;28;20094;-89
2024/01/01 01:40:08;;;;;;;36.25;18.83;;;;;;;;;;5059345;28;20086;-89
2024/01/01 01:42:53;;;;;;;29.02;17.52;;;;;;;;;;5055428;28;20424;-89
2024/01/01 01:45:38;;;;;;;35.20;18.85;;;;;;;;;;5048330;28;20552;-89
2024/01/01 01:48:23;;;;;;;38.13;19.73;;;;;;;;;;5029716;28;20086;-89
2024/01/01 01:51:08;;;;;;;34.33;21.13;;;;;;;;;;5055627;28;20047;-88
2024/01/01 01:53:53;;;;;;;42.85;25.45;;;;;;;;;;5056157;28;20491;-90
2024/01/01 01:56:38;;;;;;;41.70;21.67;;;;;;;;;;5047603;28;20043;-89
2024/01/01 01:59:23;;;;;;;38.90;21.40;;;;;;;;;;5055217;28;20095;-90
2024/01/01 02:02:07;;;;;;;43.40;24.45;;;;;;;;;;5070737;28;20506;-89
2024/01/01 02:04:52;;;;;;;40.42;23.67;;;;;;;;;;5042099;28;20393;-91
2024/01/01 02:07:37;;;;;;;45.00;20.77;;;;;;;;;;5056167;28;20066;-88
2024/01/01 02:10:21;;;;;;;35.65;18.92;;;;;;;;;;5070711;28;20071;-90
2024/01/01 02:13:06;;;;;;;37.65;19.48;;;;;;;;;;5055642;28;20515;-89
2024/01/01 02:15:50;;;;;;;39.47;19.80;;;;;;;;;;5055977;28;20435;-89
2024/01/01 02:18:35;;;;;;;35.08;19.30;;;;;;;;;;5054948;28;20044;-88
2024/01/01 02:21:19;;;;;;;28.83;18.02;;;;;;;;;;5054907;28;20044;-89
2024/01/01 02:24:04;;;;;;;30.48;18.25;;;;;;;;;;5055946;28;20401;-89
2024/01/01 02:26:48;;;;;;;31.00;17.75;;;;;;;;;;5056037;28;20027;-89
2024/01/01 02:29:33;;;;;;;29.98;18.05;;;;;;;;;;5056179;28;20056;-88
2024/01/01 02:32:17;;;;;;;34.65;19.45;;;;;;;;;;5030889;28;20066;-87
2024/01/01 02:35:03;;;;;;;29.25;17.58;;;;;;;;;;5049584;28;20091;-87
2024/01/01 02:37:48;;;;;;;27.50;16.30;;;;;;;;;;5045117;28;20044;-89
2024/01/01 02:40:33;;;;;;;27.50;17.17;;;;;;;;;;5042075;28;20069;-88
2024/01/01 02:43:18;;;;;;;28.20;14.45;;;;;;;;;;5055191;28;20595;-88
2024/01/01 02:46:02;;;;;;;26.92;15.23;;;;;;;;;;5055278;28;20397;-89
2024/01/01 02:48:46;;;;;;;25.23;12.45;;;;;;;;;;5042404;28;20039;-89
2024/01/01 02:51:31;;;;;;;29.75;14.40;;;;;;;;;;5041106;28;20469;-89
2024/01/01 02:54:15;;;;;;;17.80;9.60;;;;;;;;;;5068793;28;20043;-87
2024/01/01 02:57:01;;;;;;;28.63;11.93;;;;;;;;;;5054420;28;20576;-89
2024/01/01 02:59:48;;;;;;;21.13;10.38;;;;;;;;;;5048713;28;20071;-88
2024/01/01 03:02:33;;;;;;;23.65;10.68;;;;;;;;;;5063138;28;20031;-88
2024/01/01 03:05:22;;;;;;;17.40;10.07;;;;;;;;;;5065270;28;20063;-88
2024/01/01 03:08:07;;;;;;;29.33;13.95;;;;;;;;;;5068860;28;20066;-87
2024/01/01 03:10:52;;;;;;;25.80;12.65;;;;;;;;;;5078944;28;20078;-87
2024/01/01 03:13:37;;;;;;;29.52;12.50;;;;;;;;;;5079420;28;20403;-87
2024/01/01 03:16:22;;;;;;;21.63;11.73;;;;;;;;;;5079196;28;20038;-88
2024/01/01 03:19:06;;;;;;;22.25;11.70;;;;;;;;;;5065249;28;20035;-88
2024/01/01 03:21:51;;;;;;;24.10;11.00;;;;;;;;;;5079715;28;20515;-88
2024/01/01 03:24:36;;;;;;;25.85;10.32;;;;;;;;;;5067582;28;20043;-88
2024/01/01 03:27:21;;;;;;;18.83;10.07;;;;;;;;;;5078854;28;20085;-87
2024/01/01 03:30:06;;;;;;;20.83;9.32;;;;;;;;;;5078084;28;20081;-91
2024/01/01 03:32:50;;;;;;;17.63;8.88;;;;;;;;;;5064847;28;20399;-87
2024/01/01 03:35:35;;;;;;;18.52;7.80;;;;;;;;;;5078681;28;20039;-86
2024/01/01 03:38:22;;;;;;;16.50;6.80;;;;;;;;;;5080823;28;20039;-87
2024/01/01 03:41:07;;;;;;;17.17;7.25;;;;;;;;;;5078555;28;20519;-90
2024/01/01 03:43:52;;;;;;;16.08;7.07;;;;;;;;;;5062874;28;20078;-87
2024/01/01 03:46:37;;;;;;;19.20;8.02;;;;;;;;;;5064397;28;20039;-87
2024/01/01 03:49:21;;;;;;;17.10;7.18;;;;;;;;;;5078051;28;20085;-87
2024/01/01 03:52:06;;;;;;;20.38;7.20;;;;;;;;;;5083727;28;20055;-89
2024/01/01 03:54:50;;;;;;;20.38;8.13;;;;;;;;;;5093953;28;20101;-87
2024/01/01 03:57:36;;;;;;;16.75;6.28;;;;;;;;;;5064163;28;20124;-87
2024/01/01 04:00:21;;;;;;;16.25;7.22;;;;;;;;;;5077981;28;20058;-88
2024/01/01 04:03:05;;;;;;;15.05;5.95;;;;;;;;;;5068284;28;20082;-87
2024/01/01 04:05:49;;;;;;;15.90;5.85;;;;;;;;;;5059476;28;20043;-88
2024/01/01 04:08:34;;;;;;;17.25;5.38;;;;;;;;;;5058768;28;20125;-87
2024/01/01 04:11:18;;;;;;;13.60;5.28;;;;;;;;;;5077591;28;20142;-88
2024/01/01 04:14:03;;;;;;;17.50;6.88;;;;;;;;;;5077366;28;20039;-87
2024/01/01 04:16:47;;;;;;;14.40;5.18;;;;;;;;;;5093526;28;20082;-87
2024/01/01 04:19:32;;;;;;;12.63;4.60;;;;;;;;;;5093215;28;20043;-87
2024/01/01 04:22:18;;;;;;;13.13;4.38;;;;;;;;;;5065598;28;20580;-88
2024/01/01 04:25:02;;;;;;;10.20;4.53;;;;;;;;;;5093037;28;20510;-88
2024/01/01 04:27:47;;;;;;;9.32;4.40;;;;;;;;;;5077914;28;20450;-88
2024/01/01 04:30:31;;;;;;;11.90;4.10;;;;;;;;;;5052517;28;20051;-87
2024/01/01 04:33:18;;;;;;;10.93;3.67;;;;;;;;;;5092359;28;20086;-89
2024/01/01 04:36:03;;;;;;;10.50;3.95;;;;;;;;;;5092555;28;20043;-87
2024/01/01 04:38:48;;;;;;;8.02;3.67;;;;;;;;;;5077907;28;20434;-87
2024/01/01 04:41:34;;;;;;;13.43;4.13;;;;;;;;;;5072922;28;20039;-86
2024/01/01 04:44:19;;;;;;;12.20;3.85;;;;;;;;;;5057640;28;20043;-87
2024/01/01 04:47:04;;;;;;;10.30;3.85;;;;;;;;;;5082294;28;20404;-86
2024/01/01 04:49:49;;;;;;;15.77;3.78;;;;;;;;;;5063304;28;20552;-86
2024/01/01 04:52:33;;;;;;;12.13;3.42;;;;;;;;;;5076997;28;20435;-86
2024/01/01 04:55:18;;;;;;;10.70;3.42;;;;;;;;;;5067469;28;20031;-87
2024/01/01 04:58:02;;;;;;;16.45;3.25;;;;;;;;;;5062985;28;20507;-86
2024/01/01 05:00:47;;;;;;;14.93;3.35;;;;;;;;;;5076693;28;20082;-85
2024/01/01 05:03:32;;;;;;;9.85;2.88;;;;;;;;;;5072036;28;20491;-85
2024/01/01 05:06:17;;;;;;;10.00;3.42;;;;;;;;;;5032970;28;20169;-85
2024/01/01 05:09:02;;;;;;;12.50;3.50;;;;;;;;;;5072427;28;20032;-84
2024/01/01 05:11:46;;;;;;;9.98;3.42;;;;;;;;;;5056695;28;20570;-84
2024/01/01 05:14:31;;;;;;;8.05;2.53;;;;;;;;;;5072108;28;20074;-84
2024/01/01 05:17:17;;;;;;;8.88;2.78;;;;;;;;;;5071819;28;20436;-83
2024/01/01 05:20:02;;;;;;;18.45;4.15;;;;;;;;;;5056881;28;20499;-84
2024/01/01 05:22:46;;;;;;;11.48;3.50;;;;;;;;;;5043320;28;20492;-82
2024/01/01 05:25:31;;;;;;;10.40;3.25;;;;;;;;;;5060060;28;20036;-83
2024/01/01 05:28:16;;;;;;;20.27;4.13;;;;;;;;;;5071652;28;20128;-82
2024/01/01 05:31:00;;;;;;;20.73;5.93;;;;;;;;;;5042425;28;20089;-82
2024/01/01 05:33:45;;;;;;;15.75;5.43;;;;;;;;;;5071708;28;20047;-82
2024/01/01 05:36:30;;;;;;;9.23;3.53;;;;;;;;;;5070620;28;20412;-83
2024/01/01 05:39:14;;;;;;;12.60;3.65;;;;;;;;;;5071405;28;20495;-83
2024/01/01 05:41:59;;;;;;;15.82;5.15;;;;;;;;;;5059302;28;20059;-82
2024/01/01 05:44:44;;;;;;;17.13;4.43;;;;;;;;;;5070992;28;20610;-82
2024/01/01 05:47:28;;;;;;;18.08;4.60;;;;;;;;;;5042113;28;20483;-81
2024/01/01 05:50:14;;;;;;;15.15;4.20;;;;;;;;;;5060753;28;20078;-81
2024/01/01 05:52:59;;;;;;;23.35;4.97;;;;;;;;;;5071374;28;20035;-81
2024/01/01 05:55:44;;;;;;;20.50;3.88;;;;;;;;;;5070222;28;20140;-81
2024/01/01 05:58:29;;;;;;;11.57;3.35;;;;;;;;;;5071165;28;20039;-82
2024/01/01 06:01:13;;;;;;;23.52;6.40;;;;;;;;;;5071568;28;20071;-81
2024/01/01 06:03:59;;;;;;;15.23;6.35;;;;;;;;;;5070802;28;20526;-81
2024/01/01 06:06:53;;;;;;;13.43;4.57;;;;;;;;;;5070964;28;20121;-82
2024/01/01 06:09:37;;;;;;;11.40;4.35;;;;;;;;;;5070684;28;20039;-81
2024/01/01 06:12:22;;;;;;;18.17;3.83;;;;;;;;;;5055222;28;20404;-81
2024/01/01 06:15:08;;;;;;;20.42;3.85;;;;;;;;;;5070764;28;20035;-81
2024/01/01 06:17:52;;;;;;;15.05;4.15;;;;;;;;;;5070954;28;20492;-81
2024/01/01 06:20:37;;;;;;;15.77;4.65;;;;;;;;;;5043015;28;20043;-81
2024/01/01 06:23:23;;;;;;;23.65;5.25;;;;;;;;;;5052747;28;20055;-81
2024/01/01 06:26:09;;;;;;;21.50;4.47;;;;;;;;;;5063915;28;20055;-81
2024/01/01 06:28:58;;;;;;;13.45;3.70;;;;;;;;;;5059038;28;20036;-81
2024/01/01 06:31:44;;;;;;;14.15;3.80;;;;;;;;;;5054397;28;20036;-81
2024/01/01 06:34:30;;;;;;;13.43;3.55;;;;;;;;;;5070254;28;20040;-81
2024/01/01 06:37:15;;;;;;;11.15;3.90;;;;;;;;;;5055806;28;20413;-81
2024/01/01 06:40:01;;;;;;;14.13;4.03;;;;;;;;;;5057650;28;20535;-81
2024/01/01 06:42:47;;;;;;;17.25;4.10;;;;;;;;;;5070058;28;20048;-81
2024/01/01 06:45:32;;;;;;;14.00;3.55;;;;;;;;;;5055578;28;20039;-82
2024/01/01 06:48:17;;;;;;;16.08;4.40;;;;;;;;;;5054841;28;20043;-81
2024/01/01 06:51:02;;;;;;;21.75;4.93;;;;;;;;;;5052571;28;20055;-81
2024/01/01 06:53:47;;;;;;;17.95;4.18;;;;;;;;;;5055435;28;20039;-81
2024/01/01 06:56:33;;;;;;;14.00;4.30;;;;;;;;;;5042889;28;20078;-81
2024/01/01 06:59:18;;;;;;;19.45;4.05;;;;;;;;;;5070150;28;20067;-81
2024/01/01 07:02:03;;;;;;;15.65;4.22;;;;;;;;;;5070646;28;20085;-81
2024/01/01 07:04:48;;;;;;;30.50;13.48;;;;;;;;;;5055195;28;20058;-81
2024/01/01 07:07:33;;;;;;;20.42;7.40;;;;;;;;;;5069889;28;20500;-81
2024/01/01 07:10:18;;;;;;;20.20;7.85;;;;;;;;;;5070464;28;20040;-80
2024/01/01 07:13:03;;;;;;;18.42;5.15;;;;;;;;;;5055680;28;20067;-81
2024/01/01 07:15:48;;;;;;;12.35;4.35;;;;;;;;;;5063513;28;20036;-81
2024/01/01 07:18:34;;;;;;;20.73;5.05;;;;;;;;;;5051899;28;20039;-81
2024/01/01 07:21:24;;;;;;;14.32;5.47;;;;;;;;;;5042530;28;20055;-80
2024/01/01 07:24:10;;;;;;;15.07;4.63;;;;;;;;;;5060879;28;20067;-80
2024/01/01 07:26:56;;;;;;;13.18;4.30;;;;;;;;;;5069505;28;20116;-81
2024/01/01 07:29:43;;;;;;;12.55;4.20;;;;;;;;;;5070122;28;20078;-81
2024/01/01 07:32:35;;;;;;;16.90;5.25;;;;;;;;;;5067857;28;20488;-81
2024/01/01 07:35:25;;;;;;;15.93;5.00;;;;;;;;;;5059671;28;20035;-81
2024/01/01 07:38:16;;;;;;;9.18;3.60;;;;;;;;;;5070137;28;20471;-81
2024/01/01 07:41:01;;;;;;;15.60;4.35;;;;;;;;;;5054403;28;20591;-81
2024/01/01 07:43:45;;;;;;;16.10;3.97;;;;;;;;;;5043796;28;20102;-81
2024/01/01 07:46:30;;;;;;;16.08;4.75;;;;;;;;;;5070628;28;20039;-81
2024/01/01 07:49:17;;;;;;;16.50;4.47;;;;;;;;;;5043542;28;20039;-81
2024/01/01 07:52:02;;;;;;;8.98;3.03;;;;;;;;;;5063983;28;20146;-81
2024/01/01 07:54:57;;;;;;;12.65;3.38;;;;;;;;;;5059666;28;20077;-81
2024/01/01 07:57:52;;;;;;;13.45;3.97;;;;;;;;;;5057832;28;20028;-82
2024/01/01 08:00:45;;;;;;;12.38;3.38;;;;;;;;;;5074829;28;20086;-81
2024/01/01 08:03:31;;;;;;;19.55;4.00;;;;;;;;;;5059643;28;20091;-81
2024/01/01 08:06:35;;;;;;;14.35;3.85;;;;;;;;;;5066137;28;20800;-81
2024/01/01 08:09:20;;;;;;;9.23;3.92;;;;;;;;;;5072778;28;20495;-81
2024/01/01 08:12:06;;;;;;;16.88;4.13;;;;;;;;;;5052937;28;20094;-80
2024/01/01 08:14:54;;;;;;;10.30;3.10;;;;;;;;;;5053696;28;20036;-81
2024/01/01 08:17:40;;;;;;;12.45;3.80;;;;;;;;;;5066602;28;20099;-81
2024/01/01 08:20:26;;;;;;;10.23;2.30;;;;;;;;;;5070241;28;20047;-81
2024/01/01 08:23:12;;;;;;;7.28;2.00;;;;;;;;;;5058100;28;20074;-80
2024/01/01 08:25:56;;;;;;;5.57;1.77;;;;;;;;;;5051714;28;20420;-81
2024/01/01 08:28:41;;;;;;;6.82;1.67;;;;;;;;;;5072875;28;20550;-80
2024/01/01 08:31:25;;;;;;;6.20;1.85;;;;;;;;;;5057939;28;20047;-80
2024/01/01 08:34:10;;;;;;;6.25;1.38;;;;;;;;;;5072208;28;20401;-81
2024/01/01 08:36:54;;;;;;;5.55;1.30;;;;;;;;;;5049364;28;20114;-81
2024/01/01 08:39:39;;;;;;;4.82;1.00;;;;;;;;;;5054052;28;20515;-80
2024/01/01 08:42:25;;;;;;;3.72;1.27;;;;;;;;;;5062295;28;20051;-80
2024/01/01 08:45:10;;;;;;;5.95;1.50;;;;;;;;;;5044417;28;20074;-80
2024/01/01 08:48:03;;;;;;;9.73;1.73;;;;;;;;;;5071719;28;20031;-80
2024/01/01 08:50:51;;;;;;;10.18;2.58;;;;;;;;;;5069230;28;20086;-81
2024/01/01 08:53:37;;;;;;;10.90;1.98;;;;;;;;;;5047838;28;20083;-80
2024/01/01 08:56:41;;;;;;;9.30;1.90;;;;;;;;;;5071916;28;20055;-80
2024/01/01 08:59:27;;;;;;;9.32;3.00;;;;;;;;;;5073291;28;20082;-79
2024/01/01 09:02:12;;;;;;;11.57;3.15;;;;;;;;;;5056704;28;20121;-80
2024/01/01 09:04:58;;;;;;;9.38;2.35;;;;;;;;;;5057203;28;20063;-80
2024/01/01 09:07:43;;;;;;;11.85;4.35;;;;;;;;;;5057675;28;20504;-80
2024/01/01 09:10:47;;;;;;;11.70;4.13;;;;;;;;;;5056706;28;20032;-79
2024/01/01 09:13:34;;;;;;;16.80;4.22;;;;;;;;;;5071957;28;20052;-84
2024/01/01 09:16:19;;;;;;;16.38;4.38;;;;;;;;;;5055270;28;20043;-85
2024/01/01 09:19:04;;;;;;;12.90;4.20;;;;;;;;;;5060800;28;20032;-82
2024/01/01 09:21:49;;;;;;;18.33;4.32;;;;;;;;;;5061803;28;20039;-81
2024/01/01 09:24:34;;;;;;;14.05;3.33;;;;;;;;;;5071954;28;20043;-82
2024/01/01 09:27:18;;;;;;;20.92;4.50;;;;;;;;;;5060484;28;20031;-80
2024/01/01 09:30:03;;;;;;;14.80;3.30;;;;;;;;;;5061826;28;20492;-79
2024/01/01 09:33:02;;;;;;;18.08;3.55;;;;;;;;;;5041032;28;20119;-79
2024/01/01 09:35:49;;;;;;;15.45;3.20;;;;;;;;;;5069961;28;20047;-79
2024/01/01 09:38:34;;;;;;;10.23;3.50;;;;;;;;;;5041334;28;20036;-79
2024/01/01 09:41:19;;;;;;;16.40;3.90;;;;;;;;;;5058352;28;20048;-80
2024/01/01 09:44:04;;;;;;;17.65;3.47;;;;;;;;;;5067489;28;20086;-81
2024/01/01 09:46:48;;;;;;;18.17;3.38;;;;;;;;;;5062990;28;20031;-81
2024/01/01 09:49:34;;;;;;;13.43;3.17;;;;;;;;;;5071748;28;20089;-80
2024/01/01 09:52:21;;;;;;;19.98;4.03;;;;;;;;;;5054940;28;20133;-79
2024/01/01 09:55:07;;;;;;;22.92;5.22;;;;;;;;;;5047835;28;20458;-81
2024/01/01 09:57:55;;;;;;;19.60;3.80;;;;;;;;;;5054968;28;20135;-80
2024/01/01 10:00:41;;;;;;;14.60;4.15;;;;;;;;;;5057479;28;20074;-81
2024/01/01 10:03:25;;;;;;;16.10;3.67;;;;;;;;;;5063916;28;20043;-82
2024/01/01 10:06:10;;;;;;;13.80;3.13;;;;;;;;;;5054678;28;20086;-82
2024/01/01 10:09:16;;;;;;;13.90;3.45;;;;;;;;;;5070701;28;20425;-83
2024/01/01 10:12:12;;;;;;;29.40;5.45;;;;;;;;;;5050072;28;20500;-87
2024/01/01 10:14:58;;;;;;;16.63;3.60;;;;;;;;;;5053817;28;20550;-82
2024/01/01 10:17:44;;;;;;;15.43;3.55;;;;;;;;;;5065266;28;20039;-84
2024/01/01 10:20:28;;;;;;;16.35;3.85;;;;;;;;;;5055594;28;20040;-82
2024/01/01 10:23:23;;;;;;;15.90;3.03;;;;;;;;;;5070334;28;20031;-82
2024/01/01 10:26:10;;;;;;;16.08;2.97;;;;;;;;;;5070614;28;20038;-82
2024/01/01 10:28:55;;;;;;;10.95;2.40;;;;;;;;;;5043465;28;20042;-83
2024/01/01 10:31:47;;;;;;;11.45;2.80;;;;;;;;;;5069764;28;20856;-79
2024/01/01 10:34:32;;;;;;;13.23;2.47;;;;;;;;;;5070440;28;20082;-82
2024/01/01 10:37:20;;;;;;;12.45;2.67;;;;;;;;;;5054976;28;20046;-79
2024/01/01 10:40:05;;;;;;;11.55;2.40;;;;;;;;;;5043249;28;20039;-84
2024/01/01 10:42:50;;;;;;;16.33;3.58;;;;;;;;;;5061126;28;20118;-81
2024/01/01 10:45:35;;;;;;;10.15;2.55;;;;;;;;;;5065441;28;20078;-79
2024/01/01 10:48:22;;;;;;;11.82;3.03;;;;;;;;;;5070400;28;20085;-80
2024/01/01 10:51:06;;;;;;;8.60;2.33;;;;;;;;;;5044522;28;20106;-81
2024/01/01 10:53:51;;;;;;;8.23;2.45;;;;;;;;;;5067145;28;20099;-83
2024/01/01 10:56:54;;;;;;;12.18;2.05;;;;;;;;;;5059031;28;20047;-83
2024/01/01 11:00:12;;;;;;;14.27;2.15;;;;;;;;;;5067442;28;20044;-83
2024/01/01 11:02:57;;;;;;;11.73;2.30;;;;;;;;;;5008428;28;20520;-78
2024/01/01 11:05:44;;;;;;;14.48;2.55;;;;;;;;;;5018329;28;20067;-82
2024/01/01 11:08:29;;;;;;;16.38;2.92;;;;;;;;;;5069172;28;20054;-85
2024/01/01 11:11:27;;;;;;;15.80;2.65;;;;;;;;;;5045087;28;20052;-85
2024/01/01 11:14:23;;;;;;;13.25;2.58;;;;;;;;;;5069389;28;20492;-84
2024/01/01 11:17:09;;;;;;;16.42;2.88;;;;;;;;;;5054128;28;20496;-82
2024/01/01 11:19:55;;;;;;;14.13;2.85;;;;;;;;;;5068177;28;20113;-81
2024/01/01 11:22:41;;;;;;;12.80;2.13;;;;;;;;;;5071803;28;20055;-81
2024/01/01 11:25:31;;;;;;;10.57;2.53;;;;;;;;;;5068563;28;20093;-81
2024/01/01 11:28:36;;;;;;;11.82;2.53;;;;;;;;;;5055953;28;20040;-83
2024/01/01 11:31:22;;;;;;;17.20;2.55;;;;;;;;;;5056005;28;20134;-82
2024/01/01 11:34:07;;;;;;;10.45;2.17;;;;;;;;;;5056143;28;20063;-83
2024/01/01 11:36:52;;;;;;;10.93;2.65;;;;;;;;;;5049979;28;20078;-80
2024/01/01 11:39:37;;;;;;;18.70;3.20;;;;;;;;;;5071829;28;20047;-79
2024/01/01 11:42:21;;;;;;;12.90;2.30;;;;;;;;;;5057186;28;20090;-83
2024/01/01 11:45:25;;;;;;;14.82;2.72;;;;;;;;;;5073434;28;20400;-83
2024/01/01 11:48:10;;;;;;;21.00;3.58;;;;;;;;;;5071768;28;20036;-83
2024/01/01 11:50:59;;;;;;;17.65;2.30;;;;;;;;;;5044093;28;20067;-83
2024/01/01 11:53:43;;;;;;;17.95;2.35;;;;;;;;;;5042199;28;20079;-82
2024/01/01 11:56:28;;;;;;;11.45;2.00;;;;;;;;;;5057387;28;20488;-83
2024/01/01 11:59:13;;;;;;;14.20;2.05;;;;;;;;;;5054045;28;20534;-83
2024/01/01 12:01:58;;;;;;;14.23;2.70;;;;;;;;;;5069533;28;20140;-83
2024/01/01 12:04:43;;;;;;;9.85;2.70;;;;;;;;;;5083387;28;20400;-82
2024/01/01 12:07:29;;;;;;;13.65;2.80;;;;;;;;;;5087695;28;20036;-82
2024/01/01 12:10:17;;;;;;;9.00;2.35;;;;;;;;;;5088483;28;20119;-83
2024/01/01 12:13:03;;;;;;;13.30;2.60;;;;;;;;;;5094051;28;20038;-83
2024/01/01 12:15:49;;;;;;;11.50;1.70;;;;;;;;;;5094105;28;20102;-82
2024/01/01 12:18:33;;;;;;;10.75;2.65;;;;;;;;;;5092791;28;20038;-83
2024/01/01 12:21:18;;;;;;;7.90;2.65;;;;;;;;;;5093841;28;20420;-83
2024/01/01 12:24:05;;;;;;;9.52;2.00;;;;;;;;;;5066842;28;20039;-82
2024/01/01 12:26:54;;;;;;;7.82;2.15;;;;;;;;;;5092973;28;20078;-83
2024/01/01 12:29:49;;;;;;;12.82;1.95;;;;;;;;;;5077734;28;20112;-83
2024/01/01 12:32:34;;;;;;;17.33;2.53;;;;;;;;;;5092438;28;20043;-83
2024/01/01 12:35:18;;;;;;;15.40;2.47;;;;;;;;;;5065554;28;20158;-83
2024/01/01 12:38:03;;;;;;;11.48;2.13;;;;;;;;;;5092432;28;20093;-83
2024/01/01 12:40:48;;;;;;;11.90;2.72;;;;;;;;;;5077523;28;20079;-83
2024/01/01 12:43:32;;;;;;;9.82;2.63;;;;;;;;;;5079606;28;20093;-83
2024/01/01 12:46:17;;;;;;;12.00;2.22;;;;;;;;;;5092955;28;20043;-83
2024/01/01 12:49:02;;;;;;;12.38;2.20;;;;;;;;;;5063627;28;20109;-83
2024/01/01 12:51:48;;;;;;;8.43;2.35;;;;;;;;;;5080550;28;20051;-83
2024/01/01 12:54:33;;;;;;;7.82;2.05;;;;;;;;;;5087608;28;20162;-83
2024/01/01 12:57:17;;;;;;;12.18;1.95;;;;;;;;;;5086308;28;20051;-83
2024/01/01 13:00:02;;;;;;;13.82;1.75;;;;;;;;;;5052976;28;20518;-83
2024/01/01 13:02:47;;;;;;;7.60;1.90;;;;;;;;;;5071957;28;20124;-82
2024/01/01 13:05:32;;;;;;;12.68;2.10;;;;;;;;;;5071938;28;20090;-83
2024/01/01 13:08:16;;;;;;;8.43;2.08;;;;;;;;;;5057614;28;20396;-83
2024/01/01 13:11:01;;;;;;;8.55;1.95;;;;;;;;;;5061086;28;20051;-83
2024/01/01 13:13:47;;;;;;;11.57;1.92;;;;;;;;;;5071543;28;20051;-83
2024/01/01 13:16:31;;;;;;;12.02;2.45;;;;;;;;;;5071404;28;20098;-83
2024/01/01 13:19:16;;;;;;;18.08;2.58;;;;;;;;;;5033204;28;20447;-83
2024/01/01 13:22:02;;;;;;;8.68;2.10;;;;;;;;;;5071995;28;20491;-83
2024/01/01 13:24:46;;;;;;;9.23;2.20;;;;;;;;;;5071476;28;20082;-83
2024/01/01 13:27:32;;;;;;;12.93;2.40;;;;;;;;;;5056582;28;20040;-83
2024/01/01 13:30:17;;;;;;;9.20;2.38;;;;;;;;;;5071615;28;20599;-83
2024/01/01 13:33:04;;;;;;;13.30;1.88;;;;;;;;;;5056347;28;20043;-83
2024/01/01 13:35:49;;;;;;;15.43;2.67;;;;;;;;;;5056511;28;20051;-83
2024/01/01 13:38:35;;;;;;;12.30;2.25;;;;;;;;;;5044770;28;20039;-83
2024/01/01 13:41:20;;;;;;;19.40;2.58;;;;;;;;;;5048015;28;20046;-85
2024/01/01 13:44:04;;;;;;;15.68;2.67;;;;;;;;;;5064999;28;20040;-84
2024/01/01 13:46:49;;;;;;;9.95;3.20;;;;;;;;;;5043159;28;20079;-84
2024/01/01 13:49:35;;;;;;;11.32;1.92;;;;;;;;;;5055952;28;20086;-84
2024/01/01 13:52:20;;;;;;;9.45;1.75;;;;;;;;;;5071363;28;20055;-83
2024/01/01 13:55:05;;;;;;;8.00;2.00;;;;;;;;;;5049083;28;20059;-84
2024/01/01 13:57:50;;;;;;;10.20;1.90;;;;;;;;;;5068475;28;20039;-84
2024/01/01 14:00:37;;;;;;;12.85;2.88;;;;;;;;;;5054993;28;20141;-87
2024/01/01 14:03:21;;;;;;;14.15;1.70;;;;;;;;;;5076518;28;20062;-87
2024/01/01 14:06:05;;;;;;;8.75;1.98;;;;;;;;;;5076451;28;20124;-85
2024/01/01 14:08:50;;;;;;;7.65;1.65;;;;;;;;;;5075610;28;20085;-84
2024/01/01 14:11:35;;;;;;;10.05;2.25;;;;;;;;;;5076012;28;20466;-87
2024/01/01 14:14:19;;;;;;;11.65;2.15;;;;;;;;;;5071738;28;20082;-85
2024/01/01 14:17:04;;;;;;;8.98;1.60;;;;;;;;;;5075002;28;20085;-84
2024/01/01 14:19:50;;;;;;;9.75;3.60;;;;;;;;;;5075163;28;20181;-85
2024/01/01 14:22:34;;;;;;;12.43;1.98;;;;;;;;;;5076271;28;20051;-83
2024/01/01 14:25:19;;;;;;;13.05;1.77;;;;;;;;;;5091116;28;20051;-83
2024/01/01 14:28:04;;;;;;;8.48;2.05;;;;;;;;;;5091373;28;20039;-82
2024/01/01 14:30:52;;;;;;;11.20;2.50;;;;;;;;;;5090345;28;20085;-89
2024/01/01 14:33:36;;;;;;;11.63;2.00;;;;;;;;;;5065140;28;20050;-90
2024/01/01 14:36:21;;;;;;;9.95;1.83;;;;;;;;;;5085606;28;20417;-90
2024/01/01 14:39:08;;;;;;;13.77;2.28;;;;;;;;;;5085470;28;20039;-91
2024/01/01 14:41:53;;;;;;;11.25;2.33;;;;;;;;;;5074896;28;20104;-90
2024/01/01 14:44:37;;;;;;;15.68;4.03;;;;;;;;;;5090216;28;20031;-84
2024/01/01 14:47:22;;;;;;;15.50;3.47;;;;;;;;;;5076109;28;20082;-85
2024/01/01 14:50:07;;;;;;;17.00;3.05;;;;;;;;;;5062009;28;20038;-85
2024/01/01 14:52:51;;;;;;;16.30;2.30;;;;;;;;;;5074794;28;20111;-85
2024/01/01 14:55:36;;;;;;;10.40;2.80;;;;;;;;;;5076020;28;20510;-85
2024/01/01 14:58:21;;;;;;;8.38;2.78;;;;;;;;;;5095079;28;20039;-84
2024/01/01 15:01:06;;;;;;;8.48;2.75;;;;;;;;;;5091915;28;20120;-84
2024/01/01 15:03:51;;;;;;;10.95;2.50;;;;;;;;;;5058484;28;20132;-86
2024/01/01 15:06:35;;;;;;;13.23;2.05;;;;;;;;;;5060015;28;20039;-84
2024/01/01 15:09:20;;;;;;;13.82;2.45;;;;;;;;;;5047719;28;20115;-85
2024/01/01 15:12:05;;;;;;;7.25;1.67;;;;;;;;;;5073866;28;20166;-85
2024/01/01 15:14:49;;;;;;;9.98;1.73;;;;;;;;;;5059416;28;20409;-86
2024/01/01 15:17:34;;;;;;;14.82;2.53;;;;;;;;;;5063825;28;20081;-84
2024/01/01 15:20:19;;;;;;;7.45;1.80;;;;;;;;;;5059092;28;20051;-84
2024/01/01 15:23:04;;;;;;;8.48;2.25;;;;;;;;;;5073635;28;20129;-84
2024/01/01 15:25:49;;;;;;;14.57;2.75;;;;;;;;;;5073893;28;20043;-84
2024/01/01 15:28:34;;;;;;;16.15;2.03;;;;;;;;;;5057440;28;20543;-83
2024/01/01 15:31:18;;;;;;;11.07;2.75;;;;;;;;;;5072328;28;20103;-83
2024/01/01 15:34:03;;;;;;;11.98;2.05;;;;;;;;;;5065309;28;20040;-84
2024/01/01 15:36:48;;;;;;;15.35;2.30;;;;;;;;;;5066444;28;20043;-85
2024/01/01 15:39:33;;;;;;;15.27;3.33;;;;;;;;;;5054577;28;20035;-84
2024/01/01 15:42:18;;;;;;;11.80;2.78;;;;;;;;;;5052890;28;20039;-84
2024/01/01 15:45:03;;;;;;;13.88;2.40;;;;;;;;;;5052129;28;20047;-85
2024/01/01 15:47:47;;;;;;;15.20;2.17;;;;;;;;;;5047030;28;20511;-85
2024/01/01 15:50:32;;;;;;;12.98;2.72;;;;;;;;;;5073206;28;20520;-83
2024/01/01 15:53:17;;;;;;;16.45;2.90;;;;;;;;;;5065251;28;20467;-84
2024/01/01 15:56:02;;;;;;;15.32;3.03;;;;;;;;;;5056697;28;20107;-84
2024/01/01 15:58:47;;;;;;;15.07;2.55;;;;;;;;;;5057253;28;20047;-84
2024/01/01 16:01:32;;;;;;;21.15;3.90;;;;;;;;;;5060002;28;20059;-84
2024/01/01 16:04:17;;;;;;;9.27;2.70;;;;;;;;;;5051763;28;20131;-84
2024/01/01 16:07:01;;;;;;;14.10;3.50;;;;;;;;;;5052954;28;20440;-84
2024/01/01 16:09:45;;;;;;;13.93;2.65;;;;;;;;;;5073344;28;20400;-84
2024/01/01 16:12:30;;;;;;;13.32;2.45;;;;;;;;;;5031303;28;20097;-84
2024/01/01 16:15:14;;;;;;;13.98;2.65;;;;;;;;;;5068971;28;20040;-84
2024/01/01 16:17:59;;;;;;;13.40;2.85;;;;;;;;;;5065810;28;20085;-85